sensor_id;sensor_type;location;lat;lon;timestamp;P1;durP1;ratioP1;P2;durP2;ratioP2
21114;SDS011;10715;48.546;9.896;2023-06-26T00:00:04;5.97;;;5.43;;
21114;SDS011;10715;48.546;9.896;2023-06-26T00:02:30;5.80;;;4.97;;
21114;SDS011;10715;48.546;9.896;2023-06-26T00:04:58;7.07;;;5.10;;
21114;SDS011;10715;48.546;9.896;2023-06-26T00:07:23;7.87;;;5.10;;
21114;SDS011;10715;48.546;9.896;2023-06-26T00:09:49;6.00;;;5.00;;
21114;SDS011;10715;48.546;9.896;2023-06-26T00:12:15;5.37;;;4.80;;
21114;SDS011;10715;48.546;9.896;2023-06-26T00:14:40;4.73;;;4.33;;
21114;SDS011;10715;48.546;9.896;2023-06-26T00:17:06;6.10;;;5.03;;
21114;SDS011;10715;48.546;9.896;2023-06-26T00:19:32;6.10;;;5.13;;
21114;SDS011;10715;48.546;9.896;2023-06-26T00:21:58;4.90;;;4.40;;
21114;SDS011;10715;48.546;9.896;2023-06-26T00:24:23;5.73;;;4.47;;
21114;SDS011;10715;48.546;9.896;2023-06-26T00:26:49;5.00;;;4.50;;
21114;SDS011;10715;48.546;9.896;2023-06-26T00:29:15;5.50;;;5.10;;
21114;SDS011;10715;48.546;9.896;2023-06-26T00:31:41;5.57;;;4.77;;
21114;SDS011;10715;48.546;9.896;2023-06-26T00:34:07;5.10;;;4.70;;
21114;SDS011;10715;48.546;9.896;2023-06-26T00:36:33;6.77;;;5.17;;
21114;SDS011;10715;48.546;9.896;2023-06-26T00:38:59;5.97;;;5.40;;
21114;SDS011;10715;48.546;9.896;2023-06-26T00:41:24;7.00;;;5.10;;
21114;SDS011;10715;48.546;9.896;2023-06-26T00:43:50;6.43;;;4.93;;
21114;SDS011;10715;48.546;9.896;2023-06-26T00:46:16;6.83;;;5.23;;
21114;SDS011;10715;48.546;9.896;2023-06-26T00:48:43;5.50;;;4.20;;
21114;SDS011;10715;48.546;9.896;2023-06-26T00:51:10;8.73;;;5.47;;
21114;SDS011;10715;48.546;9.896;2023-06-26T00:53:37;5.10;;;4.27;;
21114;SDS011;10715;48.546;9.896;2023-06-26T00:56:02;7.63;;;5.07;;
21114;SDS011;10715;48.546;9.896;2023-06-26T00:58:30;5.50;;;5.10;;
21114;SDS011;10715;48.546;9.896;2023-06-26T01:00:55;6.83;;;4.63;;
21114;SDS011;10715;48.546;9.896;2023-06-26T01:03:22;9.00;;;5.23;;
21114;SDS011;10715;48.546;9.896;2023-06-26T01:05:50;6.20;;;5.30;;
21114;SDS011;10715;48.546;9.896;2023-06-26T01:08:17;5.53;;;3.80;;
21114;SDS011;10715;48.546;9.896;2023-06-26T01:10:44;5.10;;;4.47;;
21114;SDS011;10715;48.546;9.896;2023-06-26T01:13:14;6.03;;;5.33;;
21114;SDS011;10715;48.546;9.896;2023-06-26T01:15:41;7.27;;;5.03;;
21114;SDS011;10715;48.546;9.896;2023-06-26T01:18:07;6.47;;;4.30;;
21114;SDS011;10715;48.546;9.896;2023-06-26T01:20:37;4.80;;;4.23;;
21114;SDS011;10715;48.546;9.896;2023-06-26T01:28:35;5.33;;;4.67;;
21114;SDS011;10715;48.546;9.896;2023-06-26T01:31:04;8.00;;;5.37;;
21114;SDS011;10715;48.546;9.896;2023-06-26T01:33:31;5.27;;;4.83;;
21114;SDS011;10715;48.546;9.896;2023-06-26T01:35:58;7.53;;;5.03;;
21114;SDS011;10715;48.546;9.896;2023-06-26T01:38:23;9.70;;;5.23;;
21114;SDS011;10715;48.546;9.896;2023-06-26T01:40:50;5.00;;;4.50;;
21114;SDS011;10715;48.546;9.896;2023-06-26T01:48:52;6.70;;;5.20;;
21114;SDS011;10715;48.546;9.896;2023-06-26T01:51:42;7.17;;;4.60;;
21114;SDS011;10715;48.546;9.896;2023-06-26T01:54:12;5.70;;;4.40;;
21114;SDS011;10715;48.546;9.896;2023-06-26T01:56:42;6.07;;;3.43;;
21114;SDS011;10715;48.546;9.896;2023-06-26T01:59:11;8.00;;;4.57;;
21114;SDS011;10715;48.546;9.896;2023-06-26T02:01:40;5.00;;;4.60;;
21114;SDS011;10715;48.546;9.896;2023-06-26T02:04:06;4.37;;;4.07;;
21114;SDS011;10715;48.546;9.896;2023-06-26T02:06:32;5.30;;;4.80;;
21114;SDS011;10715;48.546;9.896;2023-06-26T02:08:58;5.87;;;5.00;;
21114;SDS011;10715;48.546;9.896;2023-06-26T02:11:23;5.30;;;4.80;;
21114;SDS011;10715;48.546;9.896;2023-06-26T02:13:49;6.10;;;3.90;;
21114;SDS011;10715;48.546;9.896;2023-06-26T02:16:15;5.10;;;4.47;;
21114;SDS011;10715;48.546;9.896;2023-06-26T02:18:40;5.23;;;3.83;;
21114;SDS011;10715;48.546;9.896;2023-06-26T02:21:06;5.37;;;4.87;;
21114;SDS011;10715;48.546;9.896;2023-06-26T02:23:34;6.50;;;4.63;;
21114;SDS011;10715;48.546;9.896;2023-06-26T02:26:00;8.00;;;5.23;;
21114;SDS011;10715;48.546;9.896;2023-06-26T02:28:26;5.63;;;3.80;;
21114;SDS011;10715;48.546;9.896;2023-06-26T02:30:51;5.30;;;4.80;;
21114;SDS011;10715;48.546;9.896;2023-06-26T02:33:17;5.77;;;5.37;;
21114;SDS011;10715;48.546;9.896;2023-06-26T02:35:43;6.60;;;5.23;;
21114;SDS011;10715;48.546;9.896;2023-06-26T02:38:09;8.70;;;5.23;;
21114;SDS011;10715;48.546;9.896;2023-06-26T02:40:35;5.20;;;4.70;;
21114;SDS011;10715;48.546;9.896;2023-06-26T02:43:00;5.30;;;4.80;;
21114;SDS011;10715;48.546;9.896;2023-06-26T02:45:26;7.40;;;5.17;;
21114;SDS011;10715;48.546;9.896;2023-06-26T02:47:52;6.60;;;4.80;;
21114;SDS011;10715;48.546;9.896;2023-06-26T02:50:17;4.47;;;3.90;;
21114;SDS011;10715;48.546;9.896;2023-06-26T02:52:43;5.37;;;4.87;;
21114;SDS011;10715;48.546;9.896;2023-06-26T02:55:09;6.17;;;4.93;;
21114;SDS011;10715;48.546;9.896;2023-06-26T02:57:34;5.87;;;5.20;;
21114;SDS011;10715;48.546;9.896;2023-06-26T03:00:00;6.33;;;4.90;;
21114;SDS011;10715;48.546;9.896;2023-06-26T03:02:26;5.97;;;4.53;;
21114;SDS011;10715;48.546;9.896;2023-06-26T03:04:52;8.40;;;5.70;;
21114;SDS011;10715;48.546;9.896;2023-06-26T03:07:17;8.57;;;5.30;;
21114;SDS011;10715;48.546;9.896;2023-06-26T03:09:43;5.43;;;4.87;;
21114;SDS011;10715;48.546;9.896;2023-06-26T03:12:09;6.30;;;5.67;;
21114;SDS011;10715;48.546;9.896;2023-06-26T03:14:35;5.03;;;4.33;;
21114;SDS011;10715;48.546;9.896;2023-06-26T03:17:00;10.27;;;5.87;;
21114;SDS011;10715;48.546;9.896;2023-06-26T03:19:28;10.53;;;5.17;;
21114;SDS011;10715;48.546;9.896;2023-06-26T03:21:54;5.10;;;4.70;;
21114;SDS011;10715;48.546;9.896;2023-06-26T03:24:20;4.97;;;4.47;;
21114;SDS011;10715;48.546;9.896;2023-06-26T03:26:46;11.37;;;5.43;;
21114;SDS011;10715;48.546;9.896;2023-06-26T03:29:11;7.70;;;5.00;;
21114;SDS011;10715;48.546;9.896;2023-06-26T03:31:37;7.40;;;6.13;;
21114;SDS011;10715;48.546;9.896;2023-06-26T03:34:03;5.83;;;4.77;;
21114;SDS011;10715;48.546;9.896;2023-06-26T03:36:29;4.93;;;4.53;;
21114;SDS011;10715;48.546;9.896;2023-06-26T03:38:54;3.87;;;3.57;;
21114;SDS011;10715;48.546;9.896;2023-06-26T03:41:22;4.53;;;4.13;;
21114;SDS011;10715;48.546;9.896;2023-06-26T03:43:48;7.87;;;5.50;;
21114;SDS011;10715;48.546;9.896;2023-06-26T03:46:14;4.87;;;4.50;;
21114;SDS011;10715;48.546;9.896;2023-06-26T03:48:40;7.03;;;4.97;;
21114;SDS011;10715;48.546;9.896;2023-06-26T03:51:06;6.53;;;5.20;;
21114;SDS011;10715;48.546;9.896;2023-06-26T03:53:33;6.60;;;4.63;;
21114;SDS011;10715;48.546;9.896;2023-06-26T03:55:59;7.30;;;5.37;;
21114;SDS011;10715;48.546;9.896;2023-06-26T03:58:24;4.33;;;3.80;;
21114;SDS011;10715;48.546;9.896;2023-06-26T04:00:50;10.73;;;4.90;;
21114;SDS011;10715;48.546;9.896;2023-06-26T04:03:16;6.20;;;5.30;;
21114;SDS011;10715;48.546;9.896;2023-06-26T04:05:42;7.60;;;5.97;;
21114;SDS011;10715;48.546;9.896;2023-06-26T04:08:08;5.73;;;5.23;;
21114;SDS011;10715;48.546;9.896;2023-06-26T04:10:34;6.80;;;5.23;;
21114;SDS011;10715;48.546;9.896;2023-06-26T04:13:01;7.77;;;6.03;;
21114;SDS011;10715;48.546;9.896;2023-06-26T04:15:27;8.47;;;5.80;;
21114;SDS011;10715;48.546;9.896;2023-06-26T04:17:53;8.13;;;5.47;;
21114;SDS011;10715;48.546;9.896;2023-06-26T04:20:18;9.00;;;6.27;;
21114;SDS011;10715;48.546;9.896;2023-06-26T04:22:44;6.07;;;5.20;;
21114;SDS011;10715;48.546;9.896;2023-06-26T04:25:10;5.63;;;4.70;;
21114;SDS011;10715;48.546;9.896;2023-06-26T04:27:39;6.47;;;4.60;;
21114;SDS011;10715;48.546;9.896;2023-06-26T04:30:05;6.43;;;5.13;;
21114;SDS011;10715;48.546;9.896;2023-06-26T04:32:32;6.23;;;5.50;;
21114;SDS011;10715;48.546;9.896;2023-06-26T04:34:57;4.97;;;4.57;;
21114;SDS011;10715;48.546;9.896;2023-06-26T04:37:23;9.57;;;7.13;;
21114;SDS011;10715;48.546;9.896;2023-06-26T04:39:49;6.23;;;5.60;;
21114;SDS011;10715;48.546;9.896;2023-06-26T04:42:15;5.07;;;4.60;;
21114;SDS011;10715;48.546;9.896;2023-06-26T04:44:41;9.70;;;6.43;;
21114;SDS011;10715;48.546;9.896;2023-06-26T04:47:08;6.47;;;5.57;;
21114;SDS011;10715;48.546;9.896;2023-06-26T04:49:34;8.70;;;6.67;;
21114;SDS011;10715;48.546;9.896;2023-06-26T04:52:00;5.20;;;4.73;;
21114;SDS011;10715;48.546;9.896;2023-06-26T04:54:26;6.17;;;5.50;;
21114;SDS011;10715;48.546;9.896;2023-06-26T04:56:53;12.83;;;7.13;;
21114;SDS011;10715;48.546;9.896;2023-06-26T04:59:18;7.17;;;5.60;;
21114;SDS011;10715;48.546;9.896;2023-06-26T05:01:44;10.30;;;6.97;;
21114;SDS011;10715;48.546;9.896;2023-06-26T05:04:13;5.70;;;5.20;;
21114;SDS011;10715;48.546;9.896;2023-06-26T05:06:42;7.57;;;6.10;;
21114;SDS011;10715;48.546;9.896;2023-06-26T05:09:08;7.70;;;5.43;;
21114;SDS011;10715;48.546;9.896;2023-06-26T05:11:36;7.37;;;6.40;;
21114;SDS011;10715;48.546;9.896;2023-06-26T05:14:01;17.33;;;10.83;;
21114;SDS011;10715;48.546;9.896;2023-06-26T05:16:27;16.13;;;12.53;;
21114;SDS011;10715;48.546;9.896;2023-06-26T05:18:53;15.40;;;12.57;;
21114;SDS011;10715;48.546;9.896;2023-06-26T05:21:19;12.47;;;11.17;;
21114;SDS011;10715;48.546;9.896;2023-06-26T05:23:45;28.40;;;18.60;;
21114;SDS011;10715;48.546;9.896;2023-06-26T05:26:12;21.47;;;14.73;;
21114;SDS011;10715;48.546;9.896;2023-06-26T05:28:38;13.27;;;11.97;;
21114;SDS011;10715;48.546;9.896;2023-06-26T05:31:04;15.73;;;11.47;;
21114;SDS011;10715;48.546;9.896;2023-06-26T05:33:31;12.47;;;10.17;;
21114;SDS011;10715;48.546;9.896;2023-06-26T05:36:00;12.13;;;9.40;;
21114;SDS011;10715;48.546;9.896;2023-06-26T05:38:28;11.17;;;10.17;;
21114;SDS011;10715;48.546;9.896;2023-06-26T05:40:54;12.80;;;10.93;;
21114;SDS011;10715;48.546;9.896;2023-06-26T05:43:20;13.90;;;10.93;;
21114;SDS011;10715;48.546;9.896;2023-06-26T05:45:47;22.70;;;11.77;;
21114;SDS011;10715;48.546;9.896;2023-06-26T05:48:13;15.37;;;11.57;;
21114;SDS011;10715;48.546;9.896;2023-06-26T05:50:39;17.60;;;12.40;;
21114;SDS011;10715;48.546;9.896;2023-06-26T05:53:07;10.03;;;9.00;;
21114;SDS011;10715;48.546;9.896;2023-06-26T05:55:33;14.10;;;10.23;;
21114;SDS011;10715;48.546;9.896;2023-06-26T05:57:59;11.87;;;10.70;;
21114;SDS011;10715;48.546;9.896;2023-06-26T06:00:27;10.20;;;9.20;;
21114;SDS011;10715;48.546;9.896;2023-06-26T06:02:53;10.70;;;8.57;;
21114;SDS011;10715;48.546;9.896;2023-06-26T06:05:19;9.30;;;8.40;;
21114;SDS011;10715;48.546;9.896;2023-06-26T06:07:46;9.57;;;8.77;;
21114;SDS011;10715;48.546;9.896;2023-06-26T06:10:12;10.17;;;9.17;;
21114;SDS011;10715;48.546;9.896;2023-06-26T06:12:38;8.83;;;8.00;;
21114;SDS011;10715;48.546;9.896;2023-06-26T06:15:04;15.03;;;10.60;;
21114;SDS011;10715;48.546;9.896;2023-06-26T06:17:30;11.90;;;8.50;;
21114;SDS011;10715;48.546;9.896;2023-06-26T06:19:56;12.83;;;8.90;;
21114;SDS011;10715;48.546;9.896;2023-06-26T06:22:22;8.97;;;7.10;;
21114;SDS011;10715;48.546;9.896;2023-06-26T06:24:50;12.00;;;7.97;;
21114;SDS011;10715;48.546;9.896;2023-06-26T06:27:16;7.10;;;6.50;;
21114;SDS011;10715;48.546;9.896;2023-06-26T06:29:42;11.93;;;7.70;;
21114;SDS011;10715;48.546;9.896;2023-06-26T06:32:08;7.80;;;5.87;;
21114;SDS011;10715;48.546;9.896;2023-06-26T06:34:34;7.47;;;6.67;;
21114;SDS011;10715;48.546;9.896;2023-06-26T06:37:00;6.13;;;5.60;;
21114;SDS011;10715;48.546;9.896;2023-06-26T06:39:26;9.30;;;7.30;;
21114;SDS011;10715;48.546;9.896;2023-06-26T06:41:52;7.90;;;6.60;;
21114;SDS011;10715;48.546;9.896;2023-06-26T06:44:17;7.20;;;6.60;;
21114;SDS011;10715;48.546;9.896;2023-06-26T06:46:43;7.63;;;6.93;;
21114;SDS011;10715;48.546;9.896;2023-06-26T06:49:09;8.83;;;6.60;;
21114;SDS011;10715;48.546;9.896;2023-06-26T06:51:34;7.20;;;6.50;;
21114;SDS011;10715;48.546;9.896;2023-06-26T06:54:01;7.80;;;6.53;;
21114;SDS011;10715;48.546;9.896;2023-06-26T06:56:27;7.60;;;6.30;;
21114;SDS011;10715;48.546;9.896;2023-06-26T06:58:53;6.40;;;5.80;;
21114;SDS011;10715;48.546;9.896;2023-06-26T07:01:19;7.10;;;6.40;;
21114;SDS011;10715;48.546;9.896;2023-06-26T07:03:44;5.80;;;5.30;;
21114;SDS011;10715;48.546;9.896;2023-06-26T07:06:10;6.17;;;5.63;;
21114;SDS011;10715;48.546;9.896;2023-06-26T07:08:36;7.57;;;6.97;;
21114;SDS011;10715;48.546;9.896;2023-06-26T07:11:02;6.40;;;5.53;;
21114;SDS011;10715;48.546;9.896;2023-06-26T07:13:28;4.40;;;4.07;;
21114;SDS011;10715;48.546;9.896;2023-06-26T07:15:54;5.17;;;4.73;;
21114;SDS011;10715;48.546;9.896;2023-06-26T07:18:20;5.47;;;5.07;;
21114;SDS011;10715;48.546;9.896;2023-06-26T07:20:46;4.53;;;4.13;;
21114;SDS011;10715;48.546;9.896;2023-06-26T07:23:11;4.20;;;3.40;;
21114;SDS011;10715;48.546;9.896;2023-06-26T07:25:37;4.30;;;4.00;;
21114;SDS011;10715;48.546;9.896;2023-06-26T07:28:03;4.27;;;3.97;;
21114;SDS011;10715;48.546;9.896;2023-06-26T07:30:34;3.40;;;3.10;;
21114;SDS011;10715;48.546;9.896;2023-06-26T07:33:00;4.03;;;3.67;;
21114;SDS011;10715;48.546;9.896;2023-06-26T07:35:25;2.77;;;2.53;;
21114;SDS011;10715;48.546;9.896;2023-06-26T07:37:52;4.37;;;3.70;;
21114;SDS011;10715;48.546;9.896;2023-06-26T07:40:18;3.20;;;3.00;;
21114;SDS011;10715;48.546;9.896;2023-06-26T07:42:43;4.47;;;2.93;;
21114;SDS011;10715;48.546;9.896;2023-06-26T07:45:09;2.77;;;2.57;;
21114;SDS011;10715;48.546;9.896;2023-06-26T07:47:40;3.13;;;2.93;;
21114;SDS011;10715;48.546;9.896;2023-06-26T07:50:06;4.13;;;2.97;;
21114;SDS011;10715;48.546;9.896;2023-06-26T07:52:32;3.30;;;3.10;;
21114;SDS011;10715;48.546;9.896;2023-06-26T07:54:58;3.80;;;3.50;;
21114;SDS011;10715;48.546;9.896;2023-06-26T07:57:24;5.10;;;3.40;;
21114;SDS011;10715;48.546;9.896;2023-06-26T07:59:50;9.70;;;4.40;;
21114;SDS011;10715;48.546;9.896;2023-06-26T08:02:16;5.17;;;3.10;;
21114;SDS011;10715;48.546;9.896;2023-06-26T08:04:43;3.03;;;2.83;;
21114;SDS011;10715;48.546;9.896;2023-06-26T08:07:09;3.43;;;3.23;;
21114;SDS011;10715;48.546;9.896;2023-06-26T08:09:34;5.10;;;3.60;;
21114;SDS011;10715;48.546;9.896;2023-06-26T08:12:01;3.37;;;3.10;;
21114;SDS011;10715;48.546;9.896;2023-06-26T08:14:26;3.50;;;3.20;;
21114;SDS011;10715;48.546;9.896;2023-06-26T08:16:52;3.30;;;3.10;;
21114;SDS011;10715;48.546;9.896;2023-06-26T08:19:18;3.67;;;2.47;;
21114;SDS011;10715;48.546;9.896;2023-06-26T08:21:44;3.23;;;3.03;;
21114;SDS011;10715;48.546;9.896;2023-06-26T08:24:11;3.33;;;3.03;;
21114;SDS011;10715;48.546;9.896;2023-06-26T08:26:38;3.33;;;3.03;;
21114;SDS011;10715;48.546;9.896;2023-06-26T08:29:04;3.83;;;3.53;;
21114;SDS011;10715;48.546;9.896;2023-06-26T08:31:36;3.40;;;2.93;;
21114;SDS011;10715;48.546;9.896;2023-06-26T08:34:03;3.90;;;3.30;;
21114;SDS011;10715;48.546;9.896;2023-06-26T08:36:30;3.67;;;3.40;;
21114;SDS011;10715;48.546;9.896;2023-06-26T08:38:57;3.00;;;2.80;;
21114;SDS011;10715;48.546;9.896;2023-06-26T08:41:22;3.93;;;3.73;;
21114;SDS011;10715;48.546;9.896;2023-06-26T08:43:49;4.10;;;3.83;;
21114;SDS011;10715;48.546;9.896;2023-06-26T08:46:18;3.37;;;3.17;;
21114;SDS011;10715;48.546;9.896;2023-06-26T08:49:18;3.00;;;2.57;;
21114;SDS011;10715;48.546;9.896;2023-06-26T08:51:44;3.27;;;3.07;;
21114;SDS011;10715;48.546;9.896;2023-06-26T08:54:17;5.83;;;2.97;;
21114;SDS011;10715;48.546;9.896;2023-06-26T08:56:46;3.80;;;3.40;;
21114;SDS011;10715;48.546;9.896;2023-06-26T08:59:14;3.87;;;3.67;;
21114;SDS011;10715;48.546;9.896;2023-06-26T09:01:41;3.90;;;3.50;;
21114;SDS011;10715;48.546;9.896;2023-06-26T09:04:06;3.67;;;3.43;;
21114;SDS011;10715;48.546;9.896;2023-06-26T09:06:33;3.67;;;3.40;;
21114;SDS011;10715;48.546;9.896;2023-06-26T09:08:58;3.77;;;3.57;;
21114;SDS011;10715;48.546;9.896;2023-06-26T09:11:24;4.00;;;3.80;;
21114;SDS011;10715;48.546;9.896;2023-06-26T09:13:50;4.23;;;3.93;;
21114;SDS011;10715;48.546;9.896;2023-06-26T09:16:16;5.10;;;4.80;;
21114;SDS011;10715;48.546;9.896;2023-06-26T09:18:42;3.50;;;3.30;;
21114;SDS011;10715;48.546;9.896;2023-06-26T09:21:10;2.50;;;2.30;;
21114;SDS011;10715;48.546;9.896;2023-06-26T09:23:37;4.10;;;3.80;;
21114;SDS011;10715;48.546;9.896;2023-06-26T09:26:06;5.20;;;3.97;;
21114;SDS011;10715;48.546;9.896;2023-06-26T09:28:32;4.77;;;3.73;;
21114;SDS011;10715;48.546;9.896;2023-06-26T09:31:00;5.30;;;3.63;;
21114;SDS011;10715;48.546;9.896;2023-06-26T09:33:32;3.90;;;3.60;;
21114;SDS011;10715;48.546;9.896;2023-06-26T09:36:01;3.80;;;3.60;;
21114;SDS011;10715;48.546;9.896;2023-06-26T09:38:28;3.87;;;3.57;;
21114;SDS011;10715;48.546;9.896;2023-06-26T09:40:54;4.80;;;3.63;;
21114;SDS011;10715;48.546;9.896;2023-06-26T09:43:19;4.13;;;3.83;;
21114;SDS011;10715;48.546;9.896;2023-06-26T09:45:45;3.73;;;3.53;;
21114;SDS011;10715;48.546;9.896;2023-06-26T09:48:11;3.10;;;2.90;;
21114;SDS011;10715;48.546;9.896;2023-06-26T09:50:41;3.73;;;3.27;;
21114;SDS011;10715;48.546;9.896;2023-06-26T09:53:07;4.20;;;3.80;;
21114;SDS011;10715;48.546;9.896;2023-06-26T09:55:38;4.30;;;4.00;;
21114;SDS011;10715;48.546;9.896;2023-06-26T09:58:09;3.53;;;3.27;;
21114;SDS011;10715;48.546;9.896;2023-06-26T10:00:40;5.13;;;4.60;;
21114;SDS011;10715;48.546;9.896;2023-06-26T10:03:06;3.87;;;3.57;;
21114;SDS011;10715;48.546;9.896;2023-06-26T10:05:33;4.20;;;3.80;;
21114;SDS011;10715;48.546;9.896;2023-06-26T10:07:59;4.37;;;3.80;;
21114;SDS011;10715;48.546;9.896;2023-06-26T10:10:26;4.10;;;3.90;;
21114;SDS011;10715;48.546;9.896;2023-06-26T10:12:54;3.30;;;3.10;;
21114;SDS011;10715;48.546;9.896;2023-06-26T10:15:26;3.93;;;3.70;;
21114;SDS011;10715;48.546;9.896;2023-06-26T10:17:55;5.60;;;4.70;;
21114;SDS011;10715;48.546;9.896;2023-06-26T10:20:22;4.80;;;4.40;;
21114;SDS011;10715;48.546;9.896;2023-06-26T10:22:49;4.33;;;4.03;;
21114;SDS011;10715;48.546;9.896;2023-06-26T10:25:18;3.80;;;3.60;;
21114;SDS011;10715;48.546;9.896;2023-06-26T10:27:45;4.30;;;4.00;;
21114;SDS011;10715;48.546;9.896;2023-06-26T10:30:17;3.90;;;3.60;;
21114;SDS011;10715;48.546;9.896;2023-06-26T10:32:46;4.40;;;4.10;;
21114;SDS011;10715;48.546;9.896;2023-06-26T10:35:12;5.63;;;4.07;;
21114;SDS011;10715;48.546;9.896;2023-06-26T10:40:08;7.77;;;5.00;;
21114;SDS011;10715;48.546;9.896;2023-06-26T10:42:35;4.50;;;4.20;;
21114;SDS011;10715;48.546;9.896;2023-06-26T10:45:23;4.63;;;4.33;;
21114;SDS011;10715;48.546;9.896;2023-06-26T10:47:53;8.63;;;5.30;;
21114;SDS011;10715;48.546;9.896;2023-06-26T10:50:25;5.80;;;5.27;;
21114;SDS011;10715;48.546;9.896;2023-06-26T10:53:14;5.53;;;3.90;;
21114;SDS011;10715;48.546;9.896;2023-06-26T10:55:59;4.53;;;4.23;;
21114;SDS011;10715;48.546;9.896;2023-06-26T10:58:27;6.37;;;5.47;;
21114;SDS011;10715;48.546;9.896;2023-06-26T11:03:41;4.33;;;4.13;;
21114;SDS011;10715;48.546;9.896;2023-06-26T11:06:12;4.40;;;4.00;;
21114;SDS011;10715;48.546;9.896;2023-06-26T11:08:49;5.30;;;4.90;;
21114;SDS011;10715;48.546;9.896;2023-06-26T11:11:15;5.47;;;5.17;;
21114;SDS011;10715;48.546;9.896;2023-06-26T11:13:42;5.80;;;5.30;;
21114;SDS011;10715;48.546;9.896;2023-06-26T11:16:10;6.33;;;5.57;;
21114;SDS011;10715;48.546;9.896;2023-06-26T11:18:37;4.43;;;4.03;;
21114;SDS011;10715;48.546;9.896;2023-06-26T11:21:10;6.03;;;4.87;;
21114;SDS011;10715;48.546;9.896;2023-06-26T11:23:38;5.50;;;5.10;;
21114;SDS011;10715;48.546;9.896;2023-06-26T11:26:15;5.07;;;4.27;;
21114;SDS011;10715;48.546;9.896;2023-06-26T11:28:52;5.33;;;4.97;;
21114;SDS011;10715;48.546;9.896;2023-06-26T11:33:57;4.40;;;4.10;;
21114;SDS011;10715;48.546;9.896;2023-06-26T11:36:38;5.23;;;4.87;;
21114;SDS011;10715;48.546;9.896;2023-06-26T11:39:07;5.67;;;5.23;;
21114;SDS011;10715;48.546;9.896;2023-06-26T11:41:33;5.27;;;4.90;;
21114;SDS011;10715;48.546;9.896;2023-06-26T11:44:00;5.47;;;5.07;;
21114;SDS011;10715;48.546;9.896;2023-06-26T11:46:27;4.80;;;4.50;;
21114;SDS011;10715;48.546;9.896;2023-06-26T11:48:53;4.83;;;4.53;;
21114;SDS011;10715;48.546;9.896;2023-06-26T11:51:19;5.30;;;4.83;;
21114;SDS011;10715;48.546;9.896;2023-06-26T11:53:45;5.23;;;4.83;;
21114;SDS011;10715;48.546;9.896;2023-06-26T11:56:13;5.47;;;5.17;;
21114;SDS011;10715;48.546;9.896;2023-06-26T12:04:12;6.03;;;5.63;;
21114;SDS011;10715;48.546;9.896;2023-06-26T12:06:48;5.33;;;5.03;;
21114;SDS011;10715;48.546;9.896;2023-06-26T12:09:16;5.50;;;5.10;;
21114;SDS011;10715;48.546;9.896;2023-06-26T12:11:44;7.20;;;4.57;;
21114;SDS011;10715;48.546;9.896;2023-06-26T12:14:13;4.47;;;4.17;;
21114;SDS011;10715;48.546;9.896;2023-06-26T12:16:40;5.37;;;4.97;;
21114;SDS011;10715;48.546;9.896;2023-06-26T12:19:06;5.30;;;4.90;;
21114;SDS011;10715;48.546;9.896;2023-06-26T12:24:01;4.43;;;4.13;;
21114;SDS011;10715;48.546;9.896;2023-06-26T12:26:28;4.90;;;4.47;;
21114;SDS011;10715;48.546;9.896;2023-06-26T12:29:01;7.47;;;4.43;;
21114;SDS011;10715;48.546;9.896;2023-06-26T12:31:31;5.13;;;4.60;;
21114;SDS011;10715;48.546;9.896;2023-06-26T12:33:57;5.27;;;4.97;;
21114;SDS011;10715;48.546;9.896;2023-06-26T12:36:23;6.40;;;5.87;;
21114;SDS011;10715;48.546;9.896;2023-06-26T12:38:49;6.03;;;5.53;;
21114;SDS011;10715;48.546;9.896;2023-06-26T12:41:18;5.50;;;5.10;;
21114;SDS011;10715;48.546;9.896;2023-06-26T12:43:45;5.50;;;5.10;;
21114;SDS011;10715;48.546;9.896;2023-06-26T12:46:11;5.77;;;5.27;;
21114;SDS011;10715;48.546;9.896;2023-06-26T12:48:41;5.40;;;5.00;;
21114;SDS011;10715;48.546;9.896;2023-06-26T12:51:16;8.47;;;4.90;;
21114;SDS011;10715;48.546;9.896;2023-06-26T12:53:42;5.07;;;4.57;;
21114;SDS011;10715;48.546;9.896;2023-06-26T12:56:09;8.70;;;6.17;;
21114;SDS011;10715;48.546;9.896;2023-06-26T12:58:36;7.73;;;6.37;;
21114;SDS011;10715;48.546;9.896;2023-06-26T13:01:03;6.13;;;5.63;;
21114;SDS011;10715;48.546;9.896;2023-06-26T13:03:30;6.17;;;5.20;;
21114;SDS011;10715;48.546;9.896;2023-06-26T13:05:56;6.70;;;6.00;;
21114;SDS011;10715;48.546;9.896;2023-06-26T13:08:22;5.90;;;5.40;;
21114;SDS011;10715;48.546;9.896;2023-06-26T13:10:48;7.10;;;6.40;;
21114;SDS011;10715;48.546;9.896;2023-06-26T13:13:14;12.43;;;6.67;;
21114;SDS011;10715;48.546;9.896;2023-06-26T13:15:39;10.97;;;5.37;;
21114;SDS011;10715;48.546;9.896;2023-06-26T13:18:05;6.70;;;6.00;;
21114;SDS011;10715;48.546;9.896;2023-06-26T13:20:31;9.00;;;6.53;;
21114;SDS011;10715;48.546;9.896;2023-06-26T13:22:57;8.63;;;6.40;;
21114;SDS011;10715;48.546;9.896;2023-06-26T13:25:22;7.70;;;5.40;;
21114;SDS011;10715;48.546;9.896;2023-06-26T13:27:48;6.60;;;6.10;;
21114;SDS011;10715;48.546;9.896;2023-06-26T13:30:16;10.40;;;5.97;;
21114;SDS011;10715;48.546;9.896;2023-06-26T13:32:42;8.30;;;5.90;;
21114;SDS011;10715;48.546;9.896;2023-06-26T13:35:08;9.40;;;8.27;;
21114;SDS011;10715;48.546;9.896;2023-06-26T13:37:38;7.67;;;6.97;;
21114;SDS011;10715;48.546;9.896;2023-06-26T13:40:05;8.43;;;6.93;;
21114;SDS011;10715;48.546;9.896;2023-06-26T13:42:32;6.30;;;5.93;;
21114;SDS011;10715;48.546;9.896;2023-06-26T13:44:58;9.20;;;5.87;;
21114;SDS011;10715;48.546;9.896;2023-06-26T13:47:24;7.07;;;6.47;;
21114;SDS011;10715;48.546;9.896;2023-06-26T13:49:50;7.47;;;6.33;;
21114;SDS011;10715;48.546;9.896;2023-06-26T13:52:15;8.30;;;6.87;;
21114;SDS011;10715;48.546;9.896;2023-06-26T13:54:41;6.73;;;6.23;;
21114;SDS011;10715;48.546;9.896;2023-06-26T13:57:07;7.20;;;6.23;;
21114;SDS011;10715;48.546;9.896;2023-06-26T13:59:36;7.10;;;6.20;;
21114;SDS011;10715;48.546;9.896;2023-06-26T14:02:02;14.63;;;6.90;;
21114;SDS011;10715;48.546;9.896;2023-06-26T14:04:29;7.10;;;6.50;;
21114;SDS011;10715;48.546;9.896;2023-06-26T14:06:55;12.87;;;6.20;;
21114;SDS011;10715;48.546;9.896;2023-06-26T14:09:20;6.97;;;6.37;;
21114;SDS011;10715;48.546;9.896;2023-06-26T14:11:46;6.70;;;6.27;;
21114;SDS011;10715;48.546;9.896;2023-06-26T14:14:13;8.37;;;7.17;;
21114;SDS011;10715;48.546;9.896;2023-06-26T14:16:38;5.40;;;5.10;;
21114;SDS011;10715;48.546;9.896;2023-06-26T14:19:07;6.83;;;5.90;;
21114;SDS011;10715;48.546;9.896;2023-06-26T14:21:34;8.47;;;5.43;;
21114;SDS011;10715;48.546;9.896;2023-06-26T14:23:59;6.87;;;6.17;;
21114;SDS011;10715;48.546;9.896;2023-06-26T14:26:25;9.43;;;7.20;;
21114;SDS011;10715;48.546;9.896;2023-06-26T14:28:51;7.10;;;6.60;;
21114;SDS011;10715;48.546;9.896;2023-06-26T14:31:16;7.03;;;6.10;;
21114;SDS011;10715;48.546;9.896;2023-06-26T14:33:42;6.90;;;6.50;;
21114;SDS011;10715;48.546;9.896;2023-06-26T14:36:08;7.80;;;7.20;;
21114;SDS011;10715;48.546;9.896;2023-06-26T14:38:34;8.17;;;7.23;;
21114;SDS011;10715;48.546;9.896;2023-06-26T14:40:59;7.80;;;6.77;;
21114;SDS011;10715;48.546;9.896;2023-06-26T14:43:25;6.40;;;5.80;;
21114;SDS011;10715;48.546;9.896;2023-06-26T14:45:51;6.03;;;5.63;;
21114;SDS011;10715;48.546;9.896;2023-06-26T14:48:16;5.13;;;4.43;;
21114;SDS011;10715;48.546;9.896;2023-06-26T14:50:44;5.83;;;5.43;;
21114;SDS011;10715;48.546;9.896;2023-06-26T14:53:10;7.13;;;5.70;;
21114;SDS011;10715;48.546;9.896;2023-06-26T14:55:35;8.60;;;5.10;;
21114;SDS011;10715;48.546;9.896;2023-06-26T14:58:01;5.33;;;4.97;;
21114;SDS011;10715;48.546;9.896;2023-06-26T15:00:27;5.73;;;5.13;;
21114;SDS011;10715;48.546;9.896;2023-06-26T15:02:52;5.87;;;5.33;;
21114;SDS011;10715;48.546;9.896;2023-06-26T15:05:19;6.13;;;5.53;;
21114;SDS011;10715;48.546;9.896;2023-06-26T15:07:46;6.30;;;5.63;;
21114;SDS011;10715;48.546;9.896;2023-06-26T15:10:12;6.20;;;5.50;;